Savoonga Airport Savoonga US
ICAO: PASA
IATA:
Category: Medium
Scheduled Services:

Elevation: 53 ft
TransAlt. 18000 ft.

Airport Communications:
AWOS 3:121.3
CTAF:122.7
NOME RDO:122.3

PASA Zoom In..

If you have problems with the map follow the link
https://www.worldairports.se/pages/airport.php?
ICAO=PASA

Runways:

(A) RW 05 length 4400 ft width 100 ft
---- / hdg 50

(B) RW 23 length 4400 ft width 100 ft
---- / hdg 230

Location; PASA
Day. 06 / Time. 01.56 Zulu
* Altimeter: 29.79
* Temperature: -09° c. -15.8°f.
* Wind from: 070° Speed 18 kn.
Dewpoint: -12° c.
Visibility: 9 Statute Miles.
Clouds: Overcast 1900 ft.
Conditions: Light Snow.

PASA 060156Z AUTO 07018KT 9SM -SN OVC019 M09/M12 A2979 RMK AO2 SLP088 P0000 T10891117 FZRANO


Wind From 070°
Speed 18 kn.

 
 
jpsmedia worldairports.se 2019   terms of use